Hauptseite
METAR-TAF:

METAR-TAF

Flughäfen :

Verkehrslandeplatz Mönchengladbach

Mönchengladbach, Deutschland

Breite: 51-13-49N, Länge: 006-30-16E, Höhe: 38 m

Beobachtung

Neuester Wetterbericht von vor 31 Stunden und 40 Minuten, um 15:50 UTC
Wind 5 kt aus Nord/Nordwest
Temperatur 24°C
Luftfeuchtigkeit 47%
Luftdruck 1019 hPa
Sichtweite 10 km oder mehr
keine Wolken unter 1500 m und keine Kumulonimbus oder Gewitterwolken

METAR: EDLN 171550Z 34005KT CAVOK 24/12 Q1019

Zeit: 01:30 (23:30 UTC)

Prognose

Neuester Wetterbericht von vor 6 Stunden und 30 Minuten, um 17:00 UTC
Gültige Prognose vom 21 um 18 UTC bis 22 um 03 UTC
Wind 2 kt aus unterschiedlichen Richtungen
Sichtweite 10 km oder mehr
keine Wolken unter 1500 m und keine Kumulonimbus oder Gewitterwolken

TAF: EDLN 211700Z 2118/2203 VRB02KT CAVOK

Wetterbeobachtungen und Prognosen von mehr als 4000 Flughäfen (METAR und TAF Bericht).

Die verfügbaren Stationen werden durch gelbe und rote Markierungen auf der Karte dargestellt.

Führen Sie die Maus auf sie, um den Namen der Station zu sehen.

Darauf klicken, um die Beobachtung von Wetterbeobachtungen und Prognosen zu sehen.

Um die Karte zu ändern : klicken Sie auf den grünen Tasten mit einem schwarzen Kreuz Zum Vergrößern, auf den grünen Button mit einem Gedankenstrich zu verkleinern, oder auf die grünen Pfeile für benachbarte Karten.


METAR-TAF: